AirNav   Everest Fuels
 
 1186 users online  

2LA5 Reed Airfield
Iota, Louisiana, USA

GOING TO IOTA?


FAA INFORMATION EFFECTIVE 26 MARCH 2020

Location

FAA Identifier: 2LA5
Lat/Long: 30-20-39.6900N 092-25-59.3100W
30-20.661500N 092-25.988500W
30.3443583,-92.4331417
(estimated)
Elevation: 30 ft. / 9 m (estimated)
Variation: 04E (1985)
From city: 3 miles NE of IOTA, LA
Time zone: UTC -5 (UTC -6 during Standard Time)
Zip code: 70543

Airport Operations

Airport use: Private use. Permission required prior to landing
Activation date: 08/1971
Control tower: no
ARTCC: HOUSTON CENTER
FSS: DE RIDDER FLIGHT SERVICE STATION
Attendance: UNATNDD
Wind indicator: yes
Segmented circle: no

Airport Communications

WX AWOS-3PT at 3R7 (14 nm SW): 121.150 (337-824-0517)

Nearby radio navigation aids

VOR radial/distance  VOR name  Freq  Var
LFTr289/24.6LAFAYETTE VORTAC109.8003E
LCHr064/36.9LAKE CHARLES VORTAC113.4007E

 
NDB name  Hdg/Dist  Freq  Var  ID
DURALDE175/13.026302EECY . -.-. -.--
ABBEVILLE315/23.423002EBNZ -... -. --..

Airport Services

Airframe service: NONE
Powerplant service: NONE

Runway Information

Runway 17/35

Dimensions: 3100 x 130 ft. / 945 x 40 m
Surface: asphalt
RUNWAY 17  RUNWAY 35
Traffic pattern: leftleft
Obstructions: other, marked, 1300 ft. from runway
PLINES
other, marked, 500 ft. from runway
WIRES

Airport Ownership and Management from official FAA records

Ownership: Privately-owned
Owner: REED AIRFIELD, LLC
8351 MCCAIN RD
IOTA, LA 70543
Phone 337-783-7773
Manager: BRADLEY REED
8351 MCCAIN RD
IOTA, LA 70543
Phone 337-783-7773

Airport Operational Statistics

Aircraft based on the field: 4
Single engine airplanes: 3
Helicopters: 1
    

Additional Remarks

FOR CD CTC LAFAYETTE APCH AT 337-262-2729, WHEN APCH CLSD CTC HOUSTON ARTCC AT 281-230-5622.

Instrument Procedures

There are no published instrument procedures at 2LA5.

Some nearby airports with instrument procedures:

4R7 - Eunice Airport (7 nm N)
3R7 - Jennings Airport (14 nm SW)
6R1 - Welsh Airport (21 nm W)
KOPL - St Landry Parish Airport-Ahart Field (22 nm NE)
KLFT - Lafayette Regional Airport/Paul Fournet Field (25 nm E)
 
Loc | Ops | Rwys | IFR | FBO | Links
Com | Nav | Svcs | Stats | Notes
Area around 2LA5 (Reed Airfield)
 
Road maps at: MapQuest Bing Google
 
Aerial photo
No photo
 
Sectional chart

 
Airport distance calculator
Flying to Reed Airfield? Find the distance to fly.

From to 2LA5

Sunrise and sunset
Times for 08-Apr-2020
 Local
(UTC-5)
 Zulu
(UTC)
Morning civil twilight06:2611:26
Sunrise06:5011:50
Sunset19:3200:32
Evening civil twilight19:5700:57

Current date and time
Zulu (UTC)  08-Apr-2020 19:08:40
Local (UTC-5)  08-Apr-2020 14:08:40
 
METAR
K3R7 
14nm SW 
081855Z AUTO 24009KT 10SM SCT022 BKN030 BKN034 28/22 A2991 RMK AO2 T02750223
KOPL 
22nm NE 
081855Z AUTO 22007KT 10SM SCT026 OVC034 28/21 A2991 RMK AO2 T02790211
KLFT 
24nm E 
081853Z 25009KT 10SM SCT024 SCT040 SCT075 28/20 A2991 RMK AO2 SLP129 T02830200
KACP 
28nm NW 
081855Z AUTO 21007KT 7SM BKN023 OVC031 27/22 A2991 RMK AO2
TAF
KLFT 
24nm E 
081732Z 0818/0918 23012KT P6SM FEW020 BKN030 FM090400 21007KT P6SM BKN015 OVC030 FM090800 VRB04KT P6SM OVC009 FM091400 30007KT P6SM OVC015 FM091700 31007KT P6SM OVC030
NOTAMs
Click for the latest NOTAMs
NOTAMs are issued by the DoD/FAA and will open in a separate window not controlled by AirNav.

 

 
 

Would you like to see your business listed on this page?

 If your business provides an interesting product or service to pilots, flight crews, aircraft, or users of the Reed Airfield, you should consider listing it here.  To start the listing process, click on the button below
 
Add a business
 

Other Pages about Reed Airfield

Update a link
 
Copyright © AirNav, LLC. All rights reserved. Privacy Policy  Contact